East Grand Forks, Minnesota
Current Conditions -  °F | °C
As of 3:53 PM on Monday 24 Nov 2014 (Local Time) from KGFK Reporting Station
Few Clouds Few Clouds  
Wind Chill:   Ceiling: Unl
Heat Index: 18°   Visibility: 10mi
Dew Point:   Wind: 17mph
Humidity: 68%   Direction: 340°NNW
Pressure: 29.9"   Gusts: 29mph
Location:  47.93°N, 97.02°W
Report Text: KGFK 242153Z 34015G25KT 10SM FEW250 M08/M13 A2990 RMK AO2 PK WND 35026/2135 SLP142 T10781128
Loading
Personal Weather Stations






























Interactive Weather Map New forecast layout! Learn more

10-Day Weather Forecast

Advertisements
Track Severe Weather on mobile